Greybeard — WCZ9876 — position and weather

sailwx.info

Track history (hours):
 
Tides and Currents Weather Stations Pressure Air Temp Water Temp Dewpoint Dewpoint Depression Visibility Wind Speed Wind Dir Waves Ship Positions

Greybeard

More information available from US FCC via Universal Licensing System and Coast Guard Vessel Documentation Center.

Last reported at 2014-Jul-28 14:22 UTC. Time now 2014-Jul-29 14:49 UTC.
Position N 36°51' W 122°04'.

Length 10 m.

Type: Fishing. MMSI: 367458170.

Date/timePositionNaut miles runAvg speedWind from/ knotsBaromVisibWave heightAir tempDewpointWater temp
2014-Jul-28 14:22N 36°51' W 122°04'4 3.8
2014-Jul-28 13:25N 36°55' W 122°03'4 0.2
2014-Jul-27 21:04N 36°53' W 122°07'2 3.4
2014-Jul-27 20:33N 36°54' W 122°09'3 3.1
2014-Jul-27 19:26N 36°55' W 122°13'1 0.6
2014-Jul-27 18:18N 36°55' W 122°12'5 2.6
2014-Jul-27 16:20N 36°58' W 122°18'2 2.8
2014-Jul-27 15:28N 36°56' W 122°15'3 2.8
2014-Jul-27 14:33N 36°55' W 122°12'  
2014-Jul-22 17:13N 36°57' W 122°15'0 0.4
2014-Jul-22 16:27N 36°57' W 122°16'3 2.9
2014-Jul-22 15:33N 36°55' W 122°13'3 2.9
2014-Jul-22 14:30N 36°54' W 122°10'  
Track history (hours):
 
Tides and Currents Weather Stations Pressure Air Temp Water Temp Dewpoint Dewpoint Depression Visibility Wind Speed Wind Dir Waves Ship Positions

Greybeard

More information available from US FCC via Universal Licensing System and Coast Guard Vessel Documentation Center.

Last reported at 2014-Jul-28 14:22 UTC. Time now 2014-Jul-29 14:49 UTC.
Position N 36°51' W 122°04'.

Length 10 m.

Type: Fishing. MMSI: 367458170.

Date/timePositionNaut miles runAvg speedWind from/ knotsBaromVisibWave heightAir tempDewpointWater temp
2014-Jul-28 14:22N 36°51' W 122°04'4 3.8
2014-Jul-28 13:25N 36°55' W 122°03'4 0.2
2014-Jul-27 21:04N 36°53' W 122°07'2 3.4
2014-Jul-27 20:33N 36°54' W 122°09'3 3.1
2014-Jul-27 19:26N 36°55' W 122°13'1 0.6
2014-Jul-27 18:18N 36°55' W 122°12'5 2.6
2014-Jul-27 16:20N 36°58' W 122°18'2 2.8
2014-Jul-27 15:28N 36°56' W 122°15'3 2.8
2014-Jul-27 14:33N 36°55' W 122°12'  
2014-Jul-22 17:13N 36°57' W 122°15'0 0.4
2014-Jul-22 16:27N 36°57' W 122°16'3 2.9
2014-Jul-22 15:33N 36°55' W 122°13'3 2.9
2014-Jul-22 14:30N 36°54' W 122°10'  

Dump ship's entire track history